Time;durP1;ratioP1;P1;durP2;ratioP2;P2;SDS_P1;SDS_P2;PMS_P1;PMS_P2;Temp;Humidity;BMP_temperature;BMP_pressure;BME280_temperature;BME280_humidity;BME280_pressure;Samples;Min_cycle;Max_cycle;Signal;HPM_P1;HPM_P2
2023/04/26 00:02:22;;;;;;;6.18;2.78;;;4.40;99.90;;;;;;5063044;28;20028;-76
2023/04/26 00:04:54;;;;;;;4.47;2.70;;;4.40;99.90;;;;;;5055303;28;20036;-77
2023/04/26 00:07:24;;;;;;;7.65;3.10;;;4.40;99.90;;;;;;5048256;28;20036;-78
2023/04/26 00:09:53;;;;;;;6.30;3.00;;;4.50;99.90;;;;;;5047354;28;20036;-77
2023/04/26 00:12:19;;;;;;;5.82;2.97;;;4.50;99.90;;;;;;5051024;28;20032;-75
2023/04/26 00:14:48;;;;;;;8.23;3.05;;;4.50;99.90;;;;;;5040034;28;20258;-75
2023/04/26 00:17:13;;;;;;;8.00;2.90;;;4.50;99.90;;;;;;5052412;28;20101;-75
2023/04/26 00:19:39;;;;;;;6.18;2.70;;;4.50;99.90;;;;;;5071718;28;20032;-77
2023/04/26 00:22:05;;;;;;;4.15;2.70;;;4.50;99.90;;;;;;5071944;28;20024;-75
2023/04/26 00:24:31;;;;;;;6.72;2.70;;;4.50;99.90;;;;;;5056464;28;20086;-75
2023/04/26 00:26:57;;;;;;;17.98;3.50;;;4.60;99.90;;;;;;5036638;28;20276;-77
2023/04/26 00:29:22;;;;;;;9.57;3.00;;;4.60;99.90;;;;;;5048801;28;20553;-75
2023/04/26 00:31:48;;;;;;;8.77;2.97;;;4.70;99.90;;;;;;5049878;28;20932;-78
2023/04/26 00:34:15;;;;;;;5.70;2.78;;;4.60;99.90;;;;;;5050845;28;20134;-75
2023/04/26 00:36:40;;;;;;;8.25;3.85;;;4.60;99.90;;;;;;5060641;28;20435;-75
2023/04/26 00:39:07;;;;;;;5.50;2.53;;;4.60;99.90;;;;;;5076887;28;20032;-77
2023/04/26 00:41:33;;;;;;;5.05;2.95;;;4.60;99.90;;;;;;5065752;28;20111;-75
2023/04/26 00:43:58;;;;;;;4.88;2.65;;;4.60;99.90;;;;;;5059081;28;20041;-75
2023/04/26 00:46:25;;;;;;;4.22;2.40;;;4.60;99.90;;;;;;5065678;28;20056;-75
2023/04/26 00:48:51;;;;;;;7.43;2.28;;;4.50;99.90;;;;;;5054443;28;20120;-75
2023/04/26 00:51:16;;;;;;;6.18;2.33;;;4.50;99.90;;;;;;5071016;28;20023;-75
2023/04/26 00:53:42;;;;;;;6.68;2.88;;;4.40;99.90;;;;;;5045794;28;20036;-75
2023/04/26 00:56:11;;;;;;;7.65;2.65;;;4.30;99.90;;;;;;5044235;28;20039;-76
2023/04/26 00:58:37;;;;;;;4.18;3.00;;;4.20;99.90;;;;;;5044467;28;20028;-76
2023/04/26 01:01:03;;;;;;;3.08;2.20;;;4.10;99.90;;;;;;5051972;28;20035;-76
2023/04/26 01:03:29;;;;;;;4.43;2.47;;;4.10;99.90;;;;;;5066612;28;20033;-76
2023/04/26 01:05:55;;;;;;;4.55;2.08;;;4.10;99.90;;;;;;5061706;28;20060;-76
2023/04/26 01:08:22;;;;;;;7.35;2.40;;;4.10;99.90;;;;;;5061653;28;20140;-75
2023/04/26 01:10:48;;;;;;;10.23;2.55;;;4.00;99.90;;;;;;5068863;28;20048;-75
2023/04/26 01:13:15;;;;;;;8.90;3.00;;;4.00;99.90;;;;;;5049832;28;20071;-75
2023/04/26 01:15:47;;;;;;;6.28;2.50;;;4.00;99.90;;;;;;5057156;28;20031;-74
2023/04/26 01:18:13;;;;;;;6.43;2.75;;;4.00;99.90;;;;;;5078970;28;20051;-75
2023/04/26 01:20:40;;;;;;;5.60;2.70;;;4.00;99.90;;;;;;5062031;28;20028;-76
2023/04/26 01:23:07;;;;;;;5.95;3.10;;;4.10;99.90;;;;;;5046661;28;20433;-75
2023/04/26 01:25:33;;;;;;;4.80;2.85;;;4.10;99.90;;;;;;5063038;28;20135;-75
2023/04/26 01:27:59;;;;;;;3.60;2.45;;;4.10;99.90;;;;;;5063299;28;20043;-76
2023/04/26 01:30:25;;;;;;;4.72;2.72;;;4.20;99.90;;;;;;5064221;28;20036;-75
2023/04/26 01:32:50;;;;;;;8.23;3.13;;;4.20;99.90;;;;;;5035129;28;20524;-76
2023/04/26 01:35:16;;;;;;;10.48;2.80;;;4.30;99.90;;;;;;5054615;28;20040;-75
2023/04/26 01:37:42;;;;;;;6.38;3.10;;;4.30;99.90;;;;;;5079265;28;20071;-76
2023/04/26 01:40:08;;;;;;;5.32;2.35;;;4.30;99.90;;;;;;5044506;28;20028;-76
2023/04/26 01:42:34;;;;;;;7.18;2.47;;;4.30;99.90;;;;;;5047453;28;20068;-77
2023/04/26 01:45:00;;;;;;;5.85;2.50;;;4.40;99.90;;;;;;5043098;28;20059;-78
2023/04/26 01:47:26;;;;;;;6.22;2.88;;;4.40;99.90;;;;;;5059147;28;20033;-77
2023/04/26 01:49:52;;;;;;;4.63;2.80;;;4.40;99.90;;;;;;5051570;28;20457;-78
2023/04/26 01:52:17;;;;;;;6.45;2.63;;;4.40;99.90;;;;;;5031704;28;20035;-77
2023/04/26 01:54:43;;;;;;;5.55;2.45;;;4.50;99.90;;;;;;5040376;28;20121;-77
2023/04/26 01:57:09;;;;;;;4.63;2.42;;;4.50;99.90;;;;;;5039594;28;20031;-78
2023/04/26 01:59:34;;;;;;;3.92;2.15;;;4.40;99.90;;;;;;5039117;28;20037;-76
2023/04/26 02:02:00;;;;;;;6.38;2.13;;;4.40;99.90;;;;;;5053626;28;20570;-77
2023/04/26 02:04:26;;;;;;;3.78;2.38;;;4.40;99.90;;;;;;5048095;28;20143;-77
2023/04/26 02:06:51;;;;;;;6.10;2.70;;;4.40;99.90;;;;;;5069319;28;20032;-77
2023/04/26 02:09:17;;;;;;;5.05;2.50;;;4.40;99.90;;;;;;5043111;28;20043;-77
2023/04/26 02:11:43;;;;;;;6.90;2.72;;;4.50;99.90;;;;;;5074851;28;20181;-76
2023/04/26 02:14:09;;;;;;;4.53;2.30;;;4.60;99.90;;;;;;5058217;28;20024;-76
2023/04/26 02:16:35;;;;;;;4.75;2.90;;;4.60;99.90;;;;;;5055523;28;20386;-76
2023/04/26 02:19:02;;;;;;;5.07;2.60;;;4.60;99.90;;;;;;5071823;28;20035;-75
2023/04/26 02:21:29;;;;;;;5.82;2.17;;;4.70;99.90;;;;;;5050511;28;20028;-74
2023/04/26 02:23:55;;;;;;;7.10;2.88;;;4.60;99.90;;;;;;5059150;28;20060;-77
2023/04/26 02:26:20;;;;;;;3.85;2.15;;;4.60;99.90;;;;;;5059840;28;20032;-77
2023/04/26 02:28:46;;;;;;;7.05;2.40;;;4.60;99.90;;;;;;5045232;28;20036;-77
2023/04/26 02:31:11;;;;;;;6.70;2.67;;;4.60;99.90;;;;;;5054368;28;20368;-76
2023/04/26 02:33:37;;;;;;;5.53;1.95;;;4.60;99.90;;;;;;5056208;28;20056;-76
2023/04/26 02:36:04;;;;;;;5.40;2.58;;;4.60;99.90;;;;;;5045307;28;20137;-77
2023/04/26 02:38:35;;;;;;;6.65;2.10;;;4.60;99.90;;;;;;5079255;28;20032;-77
2023/04/26 02:41:02;;;;;;;6.55;2.65;;;4.70;99.90;;;;;;5058913;28;20043;-76
2023/04/26 02:43:29;;;;;;;4.97;2.60;;;4.70;99.90;;;;;;5080857;28;20032;-77
2023/04/26 02:45:57;;;;;;;5.05;2.47;;;4.70;99.90;;;;;;5044345;28;20028;-77
2023/04/26 02:48:23;;;;;;;4.97;2.30;;;4.70;99.90;;;;;;5052461;28;20139;-77
2023/04/26 02:50:49;;;;;;;9.20;3.08;;;4.80;99.90;;;;;;5051837;28;20034;-77
2023/04/26 02:53:16;;;;;;;5.22;2.35;;;4.80;99.90;;;;;;5062714;28;20422;-77
2023/04/26 02:55:42;;;;;;;3.58;2.63;;;4.90;99.90;;;;;;5055134;28;20028;-77
2023/04/26 02:58:08;;;;;;;4.55;2.80;;;5.00;99.90;;;;;;5041905;28;20060;-77
2023/04/26 03:00:34;;;;;;;3.38;2.38;;;5.00;99.90;;;;;;5059416;28;20028;-77
2023/04/26 03:03:00;;;;;;;4.07;2.20;;;5.00;99.90;;;;;;5064494;28;20032;-77
2023/04/26 03:05:25;;;;;;;4.93;2.70;;;5.10;99.90;;;;;;5053743;28;20035;-76
2023/04/26 03:07:51;;;;;;;4.13;2.22;;;5.10;99.90;;;;;;5055393;28;20359;-76
2023/04/26 03:10:17;;;;;;;6.20;2.50;;;5.20;99.90;;;;;;5070980;28;20028;-76
2023/04/26 03:12:42;;;;;;;5.80;2.33;;;5.20;99.90;;;;;;5062258;28;20475;-77
2023/04/26 03:15:08;;;;;;;7.03;2.22;;;5.20;99.90;;;;;;5059760;28;20511;-76
2023/04/26 03:17:34;;;;;;;6.60;2.15;;;5.30;99.90;;;;;;5040058;28;20032;-77
2023/04/26 03:19:59;;;;;;;4.75;2.33;;;5.40;99.90;;;;;;5071356;28;20033;-76
2023/04/26 03:22:25;;;;;;;7.65;2.40;;;5.40;99.90;;;;;;5058496;28;20051;-76
2023/04/26 03:24:50;;;;;;;4.60;2.00;;;5.40;99.90;;;;;;5058970;28;20527;-77
2023/04/26 03:27:16;;;;;;;6.78;2.75;;;5.40;99.90;;;;;;5056539;28;20032;-77
2023/04/26 03:29:42;;;;;;;3.05;2.08;;;5.50;99.90;;;;;;5048788;28;20415;-76
2023/04/26 03:32:07;;;;;;;8.32;2.10;;;5.50;99.90;;;;;;5045090;28;20028;-76
2023/04/26 03:34:33;;;;;;;5.00;2.25;;;5.40;99.90;;;;;;5057921;28;20020;-76
2023/04/26 03:36:58;;;;;;;4.10;2.17;;;5.50;99.90;;;;;;5042237;28;20029;-76
2023/04/26 03:39:24;;;;;;;4.80;2.20;;;5.50;99.90;;;;;;5064099;28;20031;-76
2023/04/26 03:41:51;;;;;;;4.13;2.30;;;5.50;99.90;;;;;;5060939;28;20141;-77
2023/04/26 03:44:16;;;;;;;3.78;1.90;;;5.60;99.90;;;;;;5059522;28;20204;-77
2023/04/26 03:46:42;;;;;;;4.28;2.22;;;5.60;99.90;;;;;;5039009;28;20025;-77
2023/04/26 03:49:08;;;;;;;4.20;2.20;;;5.60;99.90;;;;;;5070670;28;20531;-76
2023/04/26 03:51:33;;;;;;;4.03;2.17;;;5.60;99.90;;;;;;5049357;28;20031;-77
2023/04/26 03:53:59;;;;;;;5.20;2.10;;;5.70;99.90;;;;;;5077786;28;20028;-77
2023/04/26 03:56:25;;;;;;;4.07;2.20;;;5.70;99.90;;;;;;5040865;28;20415;-77
2023/04/26 03:58:50;;;;;;;4.15;2.70;;;5.70;99.90;;;;;;5021006;28;20037;-76
2023/04/26 04:01:16;;;;;;;4.10;2.20;;;5.70;99.90;;;;;;5049533;28;20024;-77
2023/04/26 04:03:42;;;;;;;4.53;1.98;;;5.70;99.90;;;;;;5056557;28;20043;-77
2023/04/26 04:06:07;;;;;;;4.00;2.20;;;5.70;99.90;;;;;;5041133;28;20467;-76
2023/04/26 04:08:33;;;;;;;6.80;2.75;;;5.60;99.90;;;;;;5041934;28;20188;-77
2023/04/26 04:11:00;;;;;;;10.32;2.90;;;5.50;99.90;;;;;;5050834;28;20024;-77
2023/04/26 04:13:26;;;;;;;6.90;2.20;;;5.40;99.90;;;;;;5057346;28;20053;-77
2023/04/26 04:15:51;;;;;;;8.60;2.80;;;5.40;99.90;;;;;;5043382;28;20033;-77
2023/04/26 04:18:17;;;;;;;6.35;2.38;;;5.50;99.90;;;;;;5043226;28;20134;-76
2023/04/26 04:20:43;;;;;;;5.50;2.70;;;5.50;99.90;;;;;;5050387;28;20029;-76
2023/04/26 04:23:08;;;;;;;4.60;2.67;;;5.50;99.90;;;;;;5062699;28;20393;-77
2023/04/26 04:25:34;;;;;;;7.32;2.92;;;5.60;99.90;;;;;;5078403;28;20104;-76
2023/04/26 04:28:01;;;;;;;8.90;2.70;;;5.70;99.90;;;;;;5077882;28;20040;-77
2023/04/26 04:30:28;;;;;;;9.77;2.92;;;5.80;99.90;;;;;;5078167;28;20037;-77
2023/04/26 04:32:54;;;;;;;11.43;2.58;;;5.80;99.90;;;;;;5059542;28;20245;-76
2023/04/26 04:35:22;;;;;;;9.60;2.58;;;5.90;99.90;;;;;;5046692;28;20032;-77
2023/04/26 04:37:49;;;;;;;6.70;2.40;;;5.90;99.90;;;;;;5082413;28;20284;-77
2023/04/26 04:40:14;;;;;;;5.22;1.98;;;6.00;99.90;;;;;;5062825;28;20035;-76
2023/04/26 04:42:43;;;;;;;9.52;2.42;;;6.10;99.90;;;;;;5065865;28;20120;-77
2023/04/26 04:45:09;;;;;;;3.63;2.10;;;6.00;99.90;;;;;;5056290;28;20056;-76
2023/04/26 04:47:36;;;;;;;5.75;2.00;;;6.00;99.90;;;;;;5062227;28;20032;-76
2023/04/26 04:50:05;;;;;;;6.93;2.00;;;6.00;99.90;;;;;;5062519;28;20337;-76
2023/04/26 04:52:32;;;;;;;7.13;2.08;;;6.00;99.90;;;;;;5054402;28;20032;-76
2023/04/26 04:54:58;;;;;;;4.30;2.15;;;6.00;99.90;;;;;;5044820;28;20059;-77
2023/04/26 04:57:23;;;;;;;7.45;2.17;;;6.00;99.90;;;;;;5050064;28;20130;-77
2023/04/26 04:59:50;;;;;;;7.57;2.08;;;5.90;99.90;;;;;;5060914;28;20028;-77
2023/04/26 05:02:15;;;;;;;4.70;2.00;;;5.90;99.90;;;;;;5042990;28;20192;-76
2023/04/26 05:04:41;;;;;;;6.78;1.98;;;6.00;99.90;;;;;;5059882;28;20348;-76
2023/04/26 05:07:06;;;;;;;5.20;1.88;;;6.10;99.90;;;;;;5076627;28;20479;-76
2023/04/26 05:09:32;;;;;;;9.55;2.20;;;6.20;99.90;;;;;;5047116;28;20155;-76
2023/04/26 05:11:58;;;;;;;4.72;1.92;;;6.20;99.90;;;;;;5068310;28;20037;-76
2023/04/26 05:14:24;;;;;;;4.88;2.08;;;6.20;99.90;;;;;;5043505;28;20476;-76
2023/04/26 05:16:49;;;;;;;3.40;1.80;;;6.30;99.90;;;;;;5046465;28;20788;-76
2023/04/26 05:19:15;;;;;;;9.63;2.03;;;6.40;99.90;;;;;;5061977;28;20345;-76
2023/04/26 05:21:41;;;;;;;6.20;2.10;;;6.30;99.90;;;;;;5052301;28;20112;-76
2023/04/26 05:24:06;;;;;;;4.55;1.80;;;6.40;99.90;;;;;;5049039;28;20055;-77
2023/04/26 05:26:34;;;;;;;6.05;2.35;;;6.40;99.90;;;;;;5054414;28;20051;-77
2023/04/26 05:29:00;;;;;;;4.90;2.10;;;6.50;99.90;;;;;;5039975;28;20097;-76
2023/04/26 05:31:26;;;;;;;6.00;2.30;;;6.60;99.90;;;;;;5074795;28;20454;-77
2023/04/26 05:33:51;;;;;;;6.65;2.33;;;6.70;99.90;;;;;;5060349;28;20060;-76
2023/04/26 05:36:18;;;;;;;7.40;2.50;;;6.70;99.90;;;;;;5069208;28;20056;-76
2023/04/26 05:38:43;;;;;;;5.80;2.45;;;6.80;99.90;;;;;;5056157;28;20032;-76
2023/04/26 05:41:09;;;;;;;8.10;2.15;;;6.90;99.90;;;;;;5056710;28;20514;-76
2023/04/26 05:43:36;;;;;;;5.38;2.45;;;7.00;99.90;;;;;;5040814;28;20043;-77
2023/04/26 05:46:01;;;;;;;4.95;2.30;;;7.00;99.90;;;;;;5040129;28;20047;-77
2023/04/26 05:48:28;;;;;;;7.32;2.30;;;7.20;99.90;;;;;;5059984;28;20037;-76
2023/04/26 05:50:54;;;;;;;7.10;2.35;;;7.30;99.90;;;;;;5056057;28;20066;-75
2023/04/26 05:53:20;;;;;;;5.78;2.15;;;7.30;99.90;;;;;;5064310;28;20086;-76
2023/04/26 05:55:46;;;;;;;8.48;2.20;;;7.40;99.90;;;;;;5058575;28;20059;-75
2023/04/26 05:58:12;;;;;;;10.82;2.40;;;7.50;99.90;;;;;;5039061;28;20024;-76
2023/04/26 06:00:37;;;;;;;6.63;2.22;;;7.50;99.90;;;;;;5056136;28;20102;-76
2023/04/26 06:03:04;;;;;;;7.13;2.65;;;7.60;99.90;;;;;;5042712;28;20025;-75
2023/04/26 06:05:30;;;;;;;11.93;2.35;;;7.60;99.90;;;;;;5057331;28;20551;-75
2023/04/26 06:07:56;;;;;;;6.75;2.30;;;7.70;99.90;;;;;;5063395;28;20045;-76
2023/04/26 06:10:21;;;;;;;9.48;2.40;;;7.80;99.90;;;;;;5053230;28;20053;-76
2023/04/26 06:12:47;;;;;;;7.65;2.15;;;7.80;99.90;;;;;;5061587;28;20044;-75
2023/04/26 06:15:13;;;;;;;6.75;2.10;;;7.90;99.90;;;;;;5061980;28;20024;-75
2023/04/26 06:17:40;;;;;;;6.75;1.95;;;8.00;99.90;;;;;;5078065;28;20130;-75
2023/04/26 06:20:08;;;;;;;7.35;2.13;;;8.00;99.90;;;;;;5060836;28;20032;-75
2023/04/26 06:22:33;;;;;;;8.93;2.05;;;8.10;99.90;;;;;;5036641;28;20029;-75
2023/04/26 06:24:59;;;;;;;8.70;1.88;;;8.10;99.90;;;;;;5034096;28;20375;-76
2023/04/26 06:27:25;;;;;;;6.22;1.70;;;8.00;99.90;;;;;;5039036;28;20040;-75
2023/04/26 06:29:51;;;;;;;8.15;2.58;;;8.00;99.90;;;;;;5059850;28;20527;-75
2023/04/26 06:32:17;;;;;;;7.88;2.70;;;8.00;99.90;;;;;;5039270;28;20032;-75
2023/04/26 06:34:44;;;;;;;8.88;2.17;;;8.10;99.90;;;;;;5060621;28;20025;-75
2023/04/26 06:37:10;;;;;;;6.15;2.20;;;8.10;99.90;;;;;;5041536;28;20029;-74
2023/04/26 06:39:37;;;;;;;6.32;2.10;;;8.20;99.90;;;;;;5067989;28;20032;-75
2023/04/26 06:42:03;;;;;;;8.32;2.13;;;8.30;99.90;;;;;;5040293;28;20132;-75
2023/04/26 06:44:29;;;;;;;7.25;2.08;;;8.40;99.90;;;;;;5065323;28;20043;-75
2023/04/26 06:46:56;;;;;;;7.18;1.90;;;8.40;99.90;;;;;;5057708;28;20032;-75
2023/04/26 06:49:22;;;;;;;7.82;1.95;;;8.50;99.90;;;;;;5040856;28;20128;-76
2023/04/26 06:51:47;;;;;;;7.88;2.28;;;8.50;99.90;;;;;;5058603;28;20103;-75
2023/04/26 06:54:13;;;;;;;6.03;2.03;;;8.50;99.90;;;;;;5038221;28;20089;-76
2023/04/26 06:56:39;;;;;;;11.68;2.22;;;8.50;99.90;;;;;;5039561;28;20024;-75
2023/04/26 06:59:06;;;;;;;6.65;2.30;;;8.60;99.90;;;;;;5039507;28;20028;-75
2023/04/26 07:01:33;;;;;;;4.40;2.05;;;8.60;99.90;;;;;;5040552;28;20031;-74
2023/04/26 07:04:03;;;;;;;6.05;1.98;;;8.70;99.40;;;;;;4687368;28;9999873;-74
2023/04/26 07:06:30;;;;;;;5.38;1.92;;;8.70;99.90;;;;;;5060971;28;20106;-75
2023/04/26 07:08:57;;;;;;;9.10;2.35;;;8.80;98.20;;;;;;5045385;28;20037;-75
2023/04/26 07:11:23;;;;;;;7.05;2.00;;;8.80;99.90;;;;;;5036765;28;20035;-75
2023/04/26 07:13:49;;;;;;;5.57;2.00;;;8.90;99.00;;;;;;5037931;28;20028;-75
2023/04/26 07:16:15;;;;;;;6.72;2.47;;;8.90;99.40;;;;;;5058622;28;20558;-75
2023/04/26 07:18:41;;;;;;;8.43;1.92;;;9.00;99.40;;;;;;5052144;28;20036;-74
2023/04/26 07:21:07;;;;;;;7.30;2.33;;;9.00;98.00;;;;;;5039705;28;20532;-75
2023/04/26 07:23:32;;;;;;;4.70;1.65;;;9.00;96.70;;;;;;5030361;28;20133;-76
2023/04/26 07:26:00;;;;;;;8.85;2.00;;;9.10;95.40;;;;;;5033861;28;20140;-75
2023/04/26 07:28:26;;;;;;;7.13;2.05;;;9.20;96.30;;;;;;5043510;28;20520;-76
2023/04/26 07:30:51;;;;;;;5.15;1.90;;;9.30;96.60;;;;;;5044114;28;20497;-76
2023/04/26 07:33:17;;;;;;;7.40;2.13;;;9.30;95.90;;;;;;5019753;28;20044;-76
2023/04/26 07:35:42;;;;;;;8.30;1.55;;;9.50;96.80;;;;;;5029342;28;20056;-76
2023/04/26 07:38:09;;;;;;;11.25;1.70;;;9.70;93.30;;;;;;5031316;28;20188;-77
2023/04/26 07:40:35;;;;;;;6.20;1.60;;;9.80;92.30;;;;;;5040441;28;20228;-76
2023/04/26 07:43:01;;;;;;;5.30;1.83;;;9.80;92.90;;;;;;5032863;28;20594;-76
2023/04/26 07:45:26;;;;;;;9.57;2.05;;;9.70;93.10;;;;;;5051764;28;20025;-76
2023/04/26 07:47:53;;;;;;;4.13;1.55;;;9.60;91.20;;;;;;5030201;28;20548;-76
2023/04/26 07:50:19;;;;;;;8.95;2.00;;;9.50;93.20;;;;;;5036146;28;20037;-76
2023/04/26 07:52:44;;;;;;;7.55;1.67;;;9.50;94.90;;;;;;5044766;28;20023;-76
2023/04/26 07:55:10;;;;;;;4.95;1.77;;;9.60;92.20;;;;;;5049468;28;20308;-77
2023/04/26 07:57:36;;;;;;;4.10;1.55;;;9.60;93.50;;;;;;5052053;28;20428;-76
2023/04/26 08:00:03;;;;;;;3.05;1.65;;;9.70;93.20;;;;;;5036104;28;20482;-77
2023/04/26 08:02:28;;;;;;;7.00;1.80;;;9.80;93.00;;;;;;5050417;28;20020;-75
2023/04/26 08:04:55;;;;;;;8.68;2.10;;;9.80;95.60;;;;;;5037935;28;20039;-76
2023/04/26 08:07:21;;;;;;;7.82;1.95;;;9.80;92.30;;;;;;5038151;28;20399;-76
2023/04/26 08:09:48;;;;;;;4.85;1.70;;;9.80;94.10;;;;;;5057859;28;20039;-76
2023/04/26 08:12:14;;;;;;;7.22;2.53;;;10.00;93.30;;;;;;5057782;28;20612;-76
2023/04/26 08:14:55;;;;;;;10.27;2.15;;;10.10;89.40;;;;;;4375288;22;22224;-78
2023/04/26 08:19:53;;;;;;;9.68;1.80;;;10.20;90.70;;;;;;5079392;22;20048;-77
2023/04/26 08:22:19;;;;;;;5.20;1.83;;;10.00;88.70;;;;;;5055815;28;20517;-75
2023/04/26 08:24:49;;;;;;;7.72;1.77;;;9.90;90.00;;;;;;5071198;28;20024;-75
2023/04/26 08:27:15;;;;;;;6.40;1.70;;;9.90;90.00;;;;;;5073227;28;20206;-76
2023/04/26 08:29:41;;;;;;;4.85;1.80;;;9.80;92.20;;;;;;5077817;28;20032;-76
2023/04/26 08:32:07;;;;;;;6.65;2.03;;;9.80;88.30;;;;;;5076478;28;20046;-77
2023/04/26 08:34:33;;;;;;;9.40;1.77;;;9.80;88.40;;;;;;5057860;28;20035;-77
2023/04/26 08:36:58;;;;;;;7.28;2.47;;;9.80;86.60;;;;;;5070875;28;20402;-77
2023/04/26 08:39:24;;;;;;;7.20;1.98;;;9.60;89.70;;;;;;5062233;28;20069;-78
2023/04/26 08:41:54;;;;;;;4.38;1.48;;;9.60;89.50;;;;;;5085972;28;20135;-77
2023/04/26 08:44:23;;;;;;;6.65;1.55;;;9.70;90.20;;;;;;5052250;28;20475;-76
2023/04/26 08:47:10;;;;;;;4.47;1.80;;;9.80;84.40;;;;;;5058641;28;20055;-77
2023/04/26 08:49:44;;;;;;;6.15;1.27;;;9.70;90.30;;;;;;5071556;28;20130;-76
2023/04/26 08:52:11;;;;;;;6.13;1.63;;;9.70;87.40;;;;;;5078116;28;20336;-77
2023/04/26 08:54:38;;;;;;;4.03;1.67;;;9.60;83.10;;;;;;5076749;28;20395;-77
2023/04/26 08:57:06;;;;;;;8.02;1.70;;;9.70;89.90;;;;;;5058551;28;20024;-76
2023/04/26 08:59:34;;;;;;;10.30;1.85;;;9.90;89.90;;;;;;5079740;28;20538;-77
2023/04/26 09:02:03;;;;;;;6.15;1.55;;;10.00;85.80;;;;;;5079099;28;20112;-76
2023/04/26 09:04:30;;;;;;;5.85;1.45;;;10.00;83.20;;;;;;5078955;28;20032;-76
2023/04/26 09:06:59;;;;;;;3.00;1.30;;;10.10;83.00;;;;;;5077311;28;20050;-76
2023/04/26 09:09:27;;;;;;;6.68;1.73;;;10.10;81.10;;;;;;5058601;28;21964;-77
2023/04/26 09:11:58;;;;;;;6.75;1.67;;;10.10;82.20;;;;;;5059554;28;20179;-77
2023/04/26 09:14:25;;;;;;;6.63;1.40;;;10.50;87.50;;;;;;4708351;28;9999628;-77
2023/04/26 09:16:51;;;;;;;4.97;1.90;;;10.80;81.20;;;;;;5081374;28;20573;-76
2023/04/26 09:19:34;;;;;;;5.80;1.60;;;11.00;83.40;;;;;;5079288;28;20093;-78
2023/04/26 09:22:00;;;;;;;4.53;1.67;;;11.10;67.00;;;;;;5069567;28;20052;-77
2023/04/26 09:24:25;;;;;;;4.97;1.70;;;11.10;65.30;;;;;;5079206;28;20067;-77
2023/04/26 09:27:04;;;;;;;4.07;1.58;;;11.30;66.70;;;;;;5075680;28;20349;-76
2023/04/26 09:29:30;;;;;;;1.88;1.30;;;11.40;62.90;;;;;;5079563;28;20044;-76
2023/04/26 09:31:57;;;;;;;5.53;1.70;;;11.50;66.90;;;;;;5059406;28;20067;-76
2023/04/26 09:34:23;;;;;;;7.40;1.75;;;11.40;63.90;;;;;;5084886;28;20220;-76
2023/04/26 09:36:50;;;;;;;4.70;1.27;;;11.30;67.00;;;;;;5062886;28;20058;-77
2023/04/26 09:39:39;;;;;;;7.00;1.70;;;11.40;66.10;;;;;;5062618;28;20032;-76
2023/04/26 09:42:06;;;;;;;4.75;1.50;;;11.70;64.20;;;;;;5058290;28;20080;-76
2023/04/26 09:44:32;;;;;;;7.25;1.80;;;11.70;65.50;;;;;;5079840;28;20028;-77
2023/04/26 09:47:08;;;;;;;8.55;1.77;;;11.60;61.20;;;;;;5078883;28;20051;-77
2023/04/26 09:49:47;;;;;;;5.22;1.77;;;11.30;62.90;;;;;;5075764;28;20122;-77
2023/04/26 09:52:13;;;;;;;4.97;1.85;;;11.10;74.70;;;;;;5072935;28;20111;-77
2023/04/26 09:54:50;;;;;;;5.25;1.77;;;11.10;66.00;;;;;;5079570;28;20130;-78
2023/04/26 09:57:17;;;;;;;3.65;1.48;;;11.00;66.90;;;;;;5062279;28;20024;-78
2023/04/26 09:59:44;;;;;;;6.32;1.73;;;11.00;66.00;;;;;;5071653;28;20029;-76
2023/04/26 10:02:14;;;;;;;5.82;1.63;;;11.00;59.60;;;;;;5075137;28;20028;-77
2023/04/26 10:04:42;;;;;;;5.13;1.77;;;11.00;62.10;;;;;;5077128;28;20082;-76
2023/04/26 10:07:08;;;;;;;4.13;1.67;;;11.30;60.70;;;;;;5079966;28;20028;-77
2023/04/26 10:09:35;;;;;;;5.65;1.70;;;11.60;62.10;;;;;;5080179;28;20047;-78
2023/04/26 10:12:01;;;;;;;6.70;1.70;;;11.50;54.70;;;;;;5082216;28;20038;-77
2023/04/26 10:14:26;;;;;;;3.33;1.75;;;11.40;58.70;;;;;;5081930;28;20040;-78
2023/04/26 10:16:53;;;;;;;10.10;2.08;;;11.30;55.20;;;;;;5077405;28;20046;-76
2023/04/26 10:19:21;;;;;;;9.88;2.10;;;11.10;56.00;;;;;;5057906;28;20056;-77
2023/04/26 10:21:50;;;;;;;3.85;1.85;;;11.00;57.80;;;;;;5062233;28;20056;-76
2023/04/26 10:24:15;;;;;;;5.45;2.50;;;10.70;58.60;;;;;;5076336;28;20043;-77
2023/04/26 10:26:52;;;;;;;6.32;2.13;;;10.60;58.40;;;;;;5078162;28;20039;-77
2023/04/26 10:29:38;;;;;;;7.45;2.13;;;10.80;64.40;;;;;;5081725;28;20036;-77
2023/04/26 10:32:04;;;;;;;7.60;2.30;;;11.00;64.70;;;;;;5074860;28;20134;-77
2023/04/26 10:34:32;;;;;;;6.53;2.65;;;11.20;63.90;;;;;;5071219;28;20114;-77
2023/04/26 10:37:15;;;;;;;6.20;2.10;;;11.30;56.10;;;;;;5057551;28;20024;-77
2023/04/26 10:39:42;;;;;;;5.63;2.20;;;11.40;55.00;;;;;;5076023;28;21645;-76
2023/04/26 10:42:24;;;;;;;6.93;2.08;;;11.40;52.70;;;;;;5077794;28;20034;-77
2023/04/26 10:44:53;;;;;;;4.65;1.88;;;11.60;55.70;;;;;;5074137;28;20028;-77
2023/04/26 10:47:35;;;;;;;7.50;2.50;;;12.00;56.10;;;;;;5075565;28;20028;-77
2023/04/26 10:50:09;;;;;;;7.53;2.40;;;12.20;55.50;;;;;;5075370;28;20040;-78
2023/04/26 10:52:37;;;;;;;6.03;2.50;;;12.80;51.10;;;;;;5075434;28;20024;-76
2023/04/26 10:55:05;;;;;;;4.82;2.20;;;12.90;48.90;;;;;;5073854;28;20039;-75
2023/04/26 10:57:45;;;;;;;7.07;2.20;;;13.10;48.40;;;;;;5072772;28;20078;-78
2023/04/26 11:00:16;;;;;;;5.05;2.00;;;13.30;51.00;;;;;;5069433;28;20372;-78
2023/04/26 11:02:56;;;;;;;7.10;2.00;;;13.90;46.30;;;;;;5055444;28;20067;-77
2023/04/26 11:05:36;;;;;;;5.00;1.92;;;14.20;45.80;;;;;;5073790;28;20036;-78
2023/04/26 11:08:08;;;;;;;5.35;1.80;;;15.20;47.00;;;;;;5074051;28;20035;-78
2023/04/26 11:10:36;;;;;;;4.47;2.08;;;16.50;41.70;;;;;;5074166;28;20028;-76
2023/04/26 11:13:03;;;;;;;6.90;2.05;;;17.20;41.70;;;;;;5078129;28;20379;-77
2023/04/26 11:15:30;;;;;;;4.85;1.65;;;17.80;39.30;;;;;;5078647;28;20066;-78
2023/04/26 11:17:56;;;;;;;6.65;1.70;;;17.70;39.30;;;;;;5062627;28;20865;-77
2023/04/26 11:20:27;;;;;;;6.60;1.77;;;17.10;39.60;;;;;;5081919;28;20036;-77
2023/04/26 11:22:53;;;;;;;4.57;1.73;;;16.60;41.40;;;;;;5081073;28;20031;-77
2023/04/26 11:25:18;;;;;;;6.13;1.75;;;16.60;43.90;;;;;;5059316;28;20467;-76
2023/04/26 11:27:44;;;;;;;6.03;1.90;;;16.80;43.80;;;;;;5080117;28;20032;-78
2023/04/26 11:30:11;;;;;;;7.88;2.40;;;17.30;40.90;;;;;;5059715;28;20031;-76
2023/04/26 11:32:36;;;;;;;8.25;2.53;;;16.80;41.10;;;;;;5075059;28;20134;-76
2023/04/26 11:35:03;;;;;;;6.43;2.10;;;16.90;43.60;;;;;;5081041;28;20123;-77
2023/04/26 11:37:28;;;;;;;5.00;1.90;;;17.30;43.60;;;;;;5060248;28;20490;-77
2023/04/26 11:39:56;;;;;;;8.80;2.10;;;17.20;42.50;;;;;;5078961;28;20107;-77
2023/04/26 11:42:24;;;;;;;4.45;1.60;;;17.20;39.70;;;;;;5076069;28;20032;-76
2023/04/26 11:44:51;;;;;;;4.32;1.95;;;17.10;39.90;;;;;;5047834;28;20135;-77
2023/04/26 11:47:18;;;;;;;5.70;2.05;;;16.60;43.40;;;;;;5056908;28;20388;-76
2023/04/26 11:49:45;;;;;;;7.55;2.33;;;17.00;40.50;;;;;;5060435;28;20039;-77
2023/04/26 11:52:12;;;;;;;6.07;2.33;;;17.20;43.50;;;;;;5063114;28;20085;-76
2023/04/26 11:54:37;;;;;;;6.70;2.72;;;18.10;41.20;;;;;;5061700;28;20020;-76
2023/04/26 11:57:16;;;;;;;7.18;2.08;;;18.80;40.60;;;;;;5080577;28;20077;-77
2023/04/26 11:59:42;;;;;;;6.28;2.13;;;19.00;39.00;;;;;;5063424;28;20012;-76
2023/04/26 12:02:08;;;;;;;5.53;2.22;;;18.30;39.70;;;;;;5081834;28;20508;-77
2023/04/26 12:04:36;;;;;;;6.63;2.70;;;18.00;41.50;;;;;;5080212;28;20028;-77
2023/04/26 12:07:03;;;;;;;9.15;2.85;;;17.70;40.10;;;;;;5073120;28;20028;-77
2023/04/26 12:09:30;;;;;;;6.32;2.22;;;17.30;42.80;;;;;;5057941;28;20054;-76
2023/04/26 12:11:58;;;;;;;7.15;2.63;;;16.90;43.00;;;;;;5078859;28;20081;-76
2023/04/26 12:14:33;;;;;;;7.15;2.35;;;16.70;43.70;;;;;;5058076;28;20041;-77
2023/04/26 12:17:03;;;;;;;9.02;2.50;;;16.50;42.00;;;;;;5068911;28;20032;-76
2023/04/26 12:19:36;;;;;;;6.32;2.40;;;16.80;42.30;;;;;;5078945;28;20044;-77
2023/04/26 12:22:02;;;;;;;5.90;2.33;;;17.30;47.30;;;;;;5061400;28;20085;-76
2023/04/26 12:24:32;;;;;;;6.97;2.05;;;17.40;44.60;;;;;;5048980;28;20078;-77
2023/04/26 12:26:58;;;;;;;6.30;2.25;;;17.30;42.20;;;;;;5057213;28;20035;-76
2023/04/26 12:29:24;;;;;;;5.07;2.08;;;17.40;40.20;;;;;;5076508;28;20036;-76
2023/04/26 12:31:49;;;;;;;6.97;2.40;;;17.40;42.00;;;;;;5057672;28;20790;-77
2023/04/26 12:34:15;;;;;;;6.70;2.35;;;17.30;45.30;;;;;;5079258;28;20028;-76
2023/04/26 12:36:43;;;;;;;8.60;2.53;;;17.40;42.50;;;;;;5073571;28;20039;-76
2023/04/26 12:39:13;;;;;;;4.95;2.15;;;17.20;41.70;;;;;;5078647;28;20024;-76
2023/04/26 12:41:39;;;;;;;5.63;2.33;;;17.20;43.00;;;;;;5056802;28;20028;-76
2023/04/26 12:44:06;;;;;;;6.95;2.45;;;17.60;45.00;;;;;;5078557;28;20020;-77
2023/04/26 12:46:32;;;;;;;6.53;2.10;;;17.30;40.50;;;;;;5071983;28;20029;-76
2023/04/26 12:48:58;;;;;;;5.88;2.30;;;17.00;44.90;;;;;;5079987;28;20032;-77
2023/04/26 12:51:24;;;;;;;5.40;2.17;;;16.90;41.00;;;;;;5083037;28;20597;-77
2023/04/26 12:53:50;;;;;;;6.30;2.50;;;16.40;47.10;;;;;;5084779;28;20126;-77
2023/04/26 12:56:16;;;;;;;5.97;2.50;;;16.00;47.10;;;;;;5083380;28;20034;-77